GQPA/ATR METAR and TAF weather

Enter ICAO airport designator
Station Type Date Time Source
GQPA METAR 2024/02/26 12:00 UTC NOAA

GQPA 261200Z 02008KT 6000 NSC 25/04 Q1016


Station Type Date Time Source
GQPA Decoded METAR 2024/02/26 12:00 UTC NOAA

Atar, Mauritania (GQPA) 20-31N 013-04W 224M
Feb 26, 2024 - 07:00 AM EST / 2024.02.26 1200 UTC
Wind: from the NNE (020 degrees) at 9 MPH (8 KT):0
Visibility: 3 mile(s):0
Temperature: 77 F (25 C)
Dew Point: 39 F (4 C)
Relative Humidity: 25%
Pressure (altimeter): 30.00 in. Hg (1016 hPa)
ob: GQPA 261200Z 02008KT 6000 NSC 25/04 Q1016
cycle: 12

Station Type Date Time Source
GQPA TAF UTC NOAA

Error!

Example: see airport list